createdAt,value
2019-04-07T00:02:22.452Z,7.38
2019-04-07T00:04:53.518Z,7.17
2019-04-07T00:07:27.479Z,7.29
2019-04-07T00:09:58.908Z,7.28
2019-04-07T00:12:32.029Z,7.28
2019-04-07T00:15:02.647Z,7.22
2019-04-07T00:17:33.890Z,7.19
2019-04-07T00:20:07.151Z,7.14
2019-04-07T00:22:38.326Z,7.08
2019-04-07T00:25:09.528Z,7.04
2019-04-07T00:27:40.610Z,7.01
2019-04-07T00:30:11.330Z,6.98
2019-04-07T00:32:42.808Z,6.98
2019-04-07T00:35:23.216Z,6.85
2019-04-07T00:37:46.701Z,6.88
2019-04-07T00:40:18.438Z,6.87
2019-04-07T00:42:49.310Z,6.85
2019-04-07T00:45:20.709Z,6.74
2019-04-07T00:47:51.757Z,6.66
2019-04-07T00:50:23.138Z,6.55
2019-04-07T00:52:54.649Z,6.42
2019-04-07T00:55:26.271Z,6.40
2019-04-07T00:57:58.424Z,6.40
2019-04-07T01:00:32.419Z,6.35
2019-04-07T01:03:04.080Z,6.30
2019-04-07T01:05:38.478Z,6.21
2019-04-07T01:08:09.640Z,6.11
2019-04-07T01:10:40.633Z,6.15
2019-04-07T01:13:12.116Z,6.19
2019-04-07T01:15:43.671Z,6.20
2019-04-07T01:18:14.423Z,6.18
2019-04-07T01:20:46.863Z,6.21
2019-04-07T01:23:18.177Z,6.18
2019-04-07T01:25:51.041Z,6.22
2019-04-07T01:28:22.470Z,6.19
2019-04-07T01:30:53.386Z,6.20
2019-04-07T01:33:24.840Z,6.16
2019-04-07T01:35:55.466Z,6.14
2019-04-07T01:38:26.918Z,6.17
2019-04-07T01:41:06.356Z,6.12
2019-04-07T01:43:39.333Z,6.02
2019-04-07T01:46:21.755Z,6.01
2019-04-07T01:49:09.122Z,6.03
2019-04-07T01:51:43.992Z,6.13
2019-04-07T01:54:26.165Z,6.10
2019-04-07T01:57:16.787Z,6.04
2019-04-07T02:00:07.371Z,5.94
2019-04-07T02:02:42.874Z,5.90
2019-04-07T02:05:31.588Z,5.91
2019-04-07T02:08:04.518Z,5.90
2019-04-07T02:10:55.946Z,5.90
2019-04-07T02:13:38.084Z,5.91
2019-04-07T02:16:13.086Z,5.86
2019-04-07T02:18:58.649Z,5.79
2019-04-07T02:21:45.613Z,5.81
2019-04-07T02:24:37.228Z,5.81
2019-04-07T02:27:11.946Z,5.76
2019-04-07T02:30:03.890Z,5.66
2019-04-07T02:32:53.157Z,5.69
2019-04-07T02:35:32.389Z,5.67
2019-04-07T02:38:14.942Z,5.66
2019-04-07T02:40:48.769Z,5.63
2019-04-07T02:43:21.592Z,5.59
2019-04-07T02:46:00.034Z,5.61
2019-04-07T02:48:48.969Z,5.58
2019-04-07T02:51:38.363Z,5.59
2019-04-07T02:54:27.903Z,5.54
2019-04-07T02:57:03.584Z,5.56
2019-04-07T02:59:40.137Z,5.57
2019-04-07T03:02:16.272Z,5.54
2019-04-07T03:04:48.866Z,5.50
2019-04-07T03:07:27.363Z,5.54
2019-04-07T03:10:00.314Z,5.46
2019-04-07T03:12:35.566Z,5.45
2019-04-07T03:15:11.479Z,5.43
2019-04-07T03:17:59.359Z,5.39
2019-04-07T03:20:34.523Z,5.45
2019-04-07T03:23:22.548Z,5.45
2019-04-07T03:26:02.216Z,5.49
2019-04-07T03:28:52.582Z,5.49
2019-04-07T03:31:27.047Z,5.55
2019-04-07T03:34:01.361Z,5.61
2019-04-07T03:37:14.956Z,5.55
2019-04-07T03:39:26.533Z,5.61
2019-04-07T03:41:59.194Z,5.65
2019-04-07T03:44:51.204Z,5.72
2019-04-07T03:47:39.794Z,5.75
2019-04-07T03:50:18.690Z,5.80
2019-04-07T03:53:03.287Z,5.83
2019-04-07T03:55:47.836Z,5.87
2019-04-07T03:58:37.576Z,5.99
2019-04-07T04:01:27.360Z,6.04
2019-04-07T04:04:00.727Z,6.09
2019-04-07T04:06:50.153Z,6.18
2019-04-07T04:09:42.202Z,6.21
2019-04-07T04:12:24.502Z,6.27
2019-04-07T04:15:01.577Z,6.33
2019-04-07T04:17:32.753Z,6.37
2019-04-07T04:20:04.294Z,6.48
2019-04-07T04:22:35.838Z,6.60
2019-04-07T04:25:08.490Z,6.67
2019-04-07T04:27:39.835Z,6.77
2019-04-07T04:30:12.224Z,6.88
2019-04-07T04:32:43.664Z,6.97
2019-04-07T04:35:14.881Z,7.07
2019-04-07T04:37:51.152Z,7.20
2019-04-07T04:40:22.267Z,7.32
2019-04-07T04:42:54.002Z,7.42
2019-04-07T04:45:26.293Z,7.55
2019-04-07T04:47:57.677Z,7.66
2019-04-07T04:50:29.866Z,7.76
2019-04-07T04:53:02.090Z,7.82
2019-04-07T04:55:33.812Z,7.89
2019-04-07T04:58:07.295Z,7.97
2019-04-07T05:00:40.425Z,8.03
2019-04-07T05:03:13.840Z,8.03
2019-04-07T05:05:45.704Z,8.06
2019-04-07T05:08:20.399Z,8.11
2019-04-07T05:10:53.257Z,8.14
2019-04-07T05:13:25.059Z,8.18
2019-04-07T05:15:56.081Z,8.28
2019-04-07T05:18:27.762Z,8.37
2019-04-07T05:20:59.760Z,8.46
2019-04-07T05:23:30.681Z,8.61
2019-04-07T05:26:03.637Z,8.82
2019-04-07T05:28:36.873Z,8.98
2019-04-07T05:31:07.368Z,9.18
2019-04-07T05:33:40.038Z,9.37
2019-04-07T05:36:10.875Z,9.61
2019-04-07T05:38:42.079Z,9.72
2019-04-07T05:41:15.663Z,9.85
2019-04-07T05:43:49.129Z,10.10
2019-04-07T05:46:22.809Z,10.32
2019-04-07T05:48:53.457Z,10.51
2019-04-07T05:51:29.868Z,10.71
2019-04-07T05:53:59.269Z,10.80
2019-04-07T05:56:33.218Z,10.95
2019-04-07T05:59:03.849Z,11.12
2019-04-07T06:01:34.678Z,11.35
2019-04-07T06:04:06.697Z,11.38
2019-04-07T06:06:40.778Z,11.36
2019-04-07T06:09:10.154Z,11.52
2019-04-07T06:11:40.927Z,11.68
2019-04-07T06:14:15.096Z,12.02
2019-04-07T06:16:46.934Z,12.25
2019-04-07T06:19:18.234Z,12.37
2019-04-07T06:21:49.907Z,12.52
2019-04-07T06:24:22.292Z,12.60
2019-04-07T06:26:53.312Z,12.67
2019-04-07T06:29:26.338Z,12.57
2019-04-07T06:32:02.323Z,12.73
2019-04-07T06:34:32.650Z,12.82
2019-04-07T06:37:04.479Z,12.96
2019-04-07T06:39:35.395Z,13.07
2019-04-07T06:42:06.468Z,13.19
2019-04-07T06:44:37.739Z,13.09
2019-04-07T06:47:17.990Z,13.20
2019-04-07T06:49:56.643Z,13.45
2019-04-07T06:52:29.000Z,13.34
2019-04-07T06:55:19.064Z,13.33
2019-04-07T06:58:08.455Z,13.48
2019-04-07T07:00:58.331Z,13.87
2019-04-07T07:03:47.627Z,14.09
2019-04-07T07:06:24.090Z,14.12
2019-04-07T07:09:00.810Z,14.20
2019-04-07T07:11:40.689Z,14.07
2019-04-07T07:14:14.420Z,14.13
2019-04-07T07:16:49.960Z,14.36
2019-04-07T07:19:27.453Z,14.50
2019-04-07T07:22:13.172Z,15.02
2019-04-07T07:24:42.776Z,15.41
2019-04-07T07:27:13.912Z,15.45
2019-04-07T07:29:47.291Z,15.48
2019-04-07T07:32:18.654Z,15.50
2019-04-07T07:34:50.764Z,15.80
2019-04-07T07:37:22.964Z,16.05
2019-04-07T07:39:56.371Z,16.21
2019-04-07T07:42:27.773Z,16.07
2019-04-07T07:44:58.867Z,16.29
2019-04-07T07:47:30.536Z,16.66
2019-04-07T07:50:04.900Z,17.08
2019-04-07T07:52:35.133Z,17.53
2019-04-07T07:55:07.598Z,17.71
2019-04-07T07:57:38.645Z,17.77
2019-04-07T08:00:10.337Z,17.84
2019-04-07T08:02:42.705Z,17.92
2019-04-07T08:05:13.626Z,18.13
2019-04-07T08:07:48.201Z,18.23
2019-04-07T08:10:18.704Z,18.27
2019-04-07T08:12:49.653Z,18.57
2019-04-07T08:15:25.409Z,18.84
2019-04-07T08:17:53.179Z,18.85
2019-04-07T08:20:24.602Z,19.26
2019-04-07T08:22:56.235Z,19.68
2019-04-07T08:25:28.127Z,19.71
2019-04-07T08:28:03.720Z,19.63
2019-04-07T08:30:33.599Z,20.02
2019-04-07T08:33:04.895Z,20.02
2019-04-07T08:35:39.480Z,19.93
2019-04-07T08:38:11.050Z,20.01
2019-04-07T08:40:41.721Z,20.38
2019-04-07T08:43:12.741Z,21.04
2019-04-07T08:45:44.900Z,21.40
2019-04-07T08:48:18.203Z,21.56
2019-04-07T08:50:48.606Z,21.38
2019-04-07T08:53:19.625Z,21.54
2019-04-07T08:55:54.392Z,21.40
2019-04-07T08:58:27.870Z,21.68
2019-04-07T09:00:57.451Z,22.17
2019-04-07T09:03:29.158Z,22.19
2019-04-07T09:05:59.884Z,22.26
2019-04-07T09:08:34.666Z,22.62
2019-04-07T09:11:05.371Z,22.60
2019-04-07T09:13:37.335Z,22.75
2019-04-07T09:16:20.018Z,22.98
2019-04-07T09:19:09.498Z,23.21
2019-04-07T09:21:58.421Z,23.07
2019-04-07T09:24:48.306Z,22.50
2019-04-07T09:27:30.006Z,22.60
2019-04-07T09:30:05.990Z,23.10
2019-04-07T09:32:55.861Z,23.16
2019-04-07T09:35:28.528Z,23.12
2019-04-07T09:38:03.997Z,23.70
2019-04-07T09:40:36.133Z,23.62
2019-04-07T09:43:26.172Z,23.18
2019-04-07T09:45:59.462Z,23.24
2019-04-07T09:48:42.836Z,22.78
2019-04-07T09:51:25.443Z,22.22
2019-04-07T09:53:57.780Z,22.00
2019-04-07T09:56:49.686Z,22.59
2019-04-07T09:59:35.018Z,23.05
2019-04-07T10:02:08.202Z,22.92
2019-04-07T10:04:55.764Z,23.46
2019-04-07T10:07:44.733Z,24.13
2019-04-07T10:10:25.051Z,24.37
2019-04-07T10:13:01.953Z,24.97
2019-04-07T10:15:40.142Z,23.91
2019-04-07T10:18:13.115Z,24.67
2019-04-07T10:20:49.198Z,24.39
2019-04-07T10:23:34.156Z,24.12
2019-04-07T10:26:22.880Z,24.83
2019-04-07T10:28:55.414Z,24.69
2019-04-07T10:31:37.635Z,25.58
2019-04-07T10:34:13.452Z,25.77
2019-04-07T10:36:46.319Z,26.18
2019-04-07T10:39:18.786Z,26.16
2019-04-07T10:42:08.834Z,25.93
2019-04-07T10:44:43.859Z,25.64
2019-04-07T10:47:34.810Z,26.75
2019-04-07T10:50:23.359Z,27.74
2019-04-07T10:53:12.632Z,28.33
2019-04-07T10:56:02.233Z,28.94
2019-04-07T10:58:41.457Z,28.64
2019-04-07T11:01:20.988Z,28.39
2019-04-07T11:03:59.420Z,29.84
2019-04-07T11:06:48.348Z,30.13
2019-04-07T11:09:31.944Z,30.90
2019-04-07T11:12:21.047Z,30.18
2019-04-07T11:14:54.749Z,30.47
2019-04-07T11:17:33.803Z,28.54
2019-04-07T11:20:08.388Z,30.28
2019-04-07T11:22:57.674Z,31.25
2019-04-07T11:25:47.724Z,31.74
2019-04-07T11:28:32.711Z,32.42
2019-04-07T11:31:17.889Z,31.76
2019-04-07T11:33:52.502Z,32.05
2019-04-07T11:36:25.480Z,31.41
2019-04-07T11:39:03.529Z,30.39
2019-04-07T11:41:52.655Z,32.00
2019-04-07T11:44:41.206Z,32.28
2019-04-07T11:47:28.719Z,30.54
2019-04-07T11:50:02.077Z,31.26
2019-04-07T11:52:40.863Z,32.47
2019-04-07T11:55:19.360Z,32.55
2019-04-07T11:58:06.425Z,32.88
2019-04-07T12:00:47.343Z,33.38
2019-04-07T12:03:20.085Z,32.73
2019-04-07T12:05:54.033Z,32.32
2019-04-07T12:08:42.713Z,32.33
2019-04-07T12:11:24.609Z,33.84
2019-04-07T12:14:00.854Z,29.36
2019-04-07T12:16:49.158Z,31.20
2019-04-07T12:19:23.867Z,32.94
2019-04-07T12:22:08.699Z,32.61
2019-04-07T12:24:39.279Z,33.22
2019-04-07T12:27:28.404Z,34.32
2019-04-07T12:30:05.561Z,34.78
2019-04-07T12:32:55.533Z,34.58
2019-04-07T12:35:36.914Z,33.05
2019-04-07T12:38:19.265Z,32.91
2019-04-07T12:41:13.377Z,32.24
2019-04-07T12:43:57.137Z,31.16
2019-04-07T12:46:46.467Z,33.87
2019-04-07T12:49:33.305Z,34.12
2019-04-07T12:52:17.445Z,34.21
2019-04-07T12:55:07.017Z,34.40
2019-04-07T12:57:45.877Z,34.87
2019-04-07T13:00:19.145Z,35.61
2019-04-07T13:03:11.682Z,34.56
2019-04-07T13:05:44.679Z,35.00
2019-04-07T13:08:17.987Z,33.72
2019-04-07T13:10:52.659Z,32.79
2019-04-07T13:13:41.881Z,34.30
2019-04-07T13:16:26.279Z,34.93
2019-04-07T13:18:57.397Z,34.70
2019-04-07T13:21:30.645Z,35.04
2019-04-07T13:24:28.976Z,35.08
2019-04-07T13:27:04.009Z,34.85
2019-04-07T13:29:41.144Z,34.62
2019-04-07T13:32:13.231Z,34.38
2019-04-07T13:35:02.065Z,34.64
2019-04-07T13:37:38.321Z,33.56
2019-04-07T13:40:14.331Z,34.00
2019-04-07T13:42:59.067Z,34.39
2019-04-07T13:45:30.140Z,33.97
2019-04-07T13:48:15.832Z,33.65
2019-04-07T13:50:49.202Z,33.83
2019-04-07T13:53:37.847Z,33.77
2019-04-07T13:56:17.632Z,32.55
2019-04-07T13:58:54.364Z,31.51
2019-04-07T14:01:30.297Z,31.95
2019-04-07T14:04:07.824Z,31.62
2019-04-07T14:06:44.935Z,30.91
2019-04-07T14:09:34.098Z,30.17
2019-04-07T14:12:12.530Z,29.13
2019-04-07T14:14:47.217Z,28.90
2019-04-07T14:17:20.838Z,29.41
2019-04-07T14:19:56.341Z,29.27
2019-04-07T14:22:32.139Z,28.97
2019-04-07T14:25:20.708Z,28.60
2019-04-07T14:28:12.862Z,28.38
2019-04-07T14:30:57.708Z,28.70
2019-04-07T14:33:42.524Z,28.47
2019-04-07T14:36:16.136Z,28.12
2019-04-07T14:38:48.648Z,28.12
2019-04-07T14:41:31.267Z,27.17
2019-04-07T14:44:11.008Z,27.19
2019-04-07T14:46:44.820Z,26.65
2019-04-07T14:49:35.822Z,25.93
2019-04-07T14:52:11.050Z,26.21
2019-04-07T14:55:01.454Z,26.13
2019-04-07T14:57:52.384Z,26.37
2019-04-07T15:00:42.916Z,25.66
2019-04-07T15:03:13.905Z,24.96
2019-04-07T15:05:49.510Z,23.73
2019-04-07T15:08:26.505Z,23.48
2019-04-07T15:10:59.707Z,22.97
2019-04-07T15:13:32.174Z,22.57
2019-04-07T15:16:03.532Z,22.08
2019-04-07T15:18:34.351Z,21.75
2019-04-07T15:21:06.824Z,21.64
2019-04-07T15:23:40.003Z,21.41
2019-04-07T15:26:14.621Z,21.16
2019-04-07T15:28:44.674Z,21.02
2019-04-07T15:31:18.347Z,20.80
2019-04-07T15:33:50.926Z,20.74
2019-04-07T15:36:22.122Z,20.46
2019-04-07T15:38:55.431Z,20.22
2019-04-07T15:41:25.475Z,19.97
2019-04-07T15:43:57.236Z,19.91
2019-04-07T15:46:28.841Z,19.83
2019-04-07T15:49:00.766Z,19.65
2019-04-07T15:51:34.975Z,19.44
2019-04-07T15:54:04.173Z,19.39
2019-04-07T15:56:35.707Z,19.28
2019-04-07T15:59:06.246Z,19.12
2019-04-07T16:01:38.721Z,18.96
2019-04-07T16:04:10.269Z,18.88
2019-04-07T16:06:47.032Z,18.73
2019-04-07T16:09:29.688Z,18.57
2019-04-07T16:11:50.819Z,18.40
2019-04-07T16:14:23.024Z,18.30
2019-04-07T16:16:54.791Z,18.21
2019-04-07T16:19:37.401Z,18.09
2019-04-07T16:21:58.192Z,17.97
2019-04-07T16:24:31.318Z,17.94
2019-04-07T16:27:05.418Z,17.81
2019-04-07T16:29:36.490Z,17.72
2019-04-07T16:32:08.158Z,17.67
2019-04-07T16:34:42.125Z,17.59
2019-04-07T16:37:11.733Z,17.47
2019-04-07T16:39:42.741Z,17.39
2019-04-07T16:42:15.322Z,17.35
2019-04-07T16:44:46.049Z,17.28
2019-04-07T16:47:22.481Z,17.25
2019-04-07T16:49:51.199Z,17.17
2019-04-07T16:52:24.415Z,17.03
2019-04-07T16:54:56.042Z,16.91
2019-04-07T16:57:29.884Z,16.80
2019-04-07T17:00:00.187Z,16.73
2019-04-07T17:02:31.646Z,16.73
2019-04-07T17:05:02.252Z,16.65
2019-04-07T17:07:34.042Z,16.61
2019-04-07T17:10:06.889Z,16.52
2019-04-07T17:12:40.608Z,16.44
2019-04-07T17:15:11.414Z,16.32
2019-04-07T17:17:43.519Z,16.26
2019-04-07T17:20:14.699Z,16.26
2019-04-07T17:22:47.738Z,16.23
2019-04-07T17:25:18.360Z,16.19
2019-04-07T17:27:49.773Z,16.07
2019-04-07T17:30:24.266Z,16.00
2019-04-07T17:32:53.818Z,15.92
2019-04-07T17:35:24.553Z,15.87
2019-04-07T17:38:01.718Z,15.85
2019-04-07T17:40:31.943Z,15.80
2019-04-07T17:43:25.003Z,15.73
2019-04-07T17:45:48.095Z,15.64
2019-04-07T17:48:38.508Z,15.61
2019-04-07T17:51:07.194Z,15.56
2019-04-07T17:53:54.043Z,15.50
2019-04-07T17:56:30.905Z,15.45
2019-04-07T17:59:14.258Z,15.34
2019-04-07T18:01:52.407Z,15.33
2019-04-07T18:04:25.114Z,15.25
2019-04-07T18:07:01.984Z,15.21
2019-04-07T18:09:32.816Z,15.25
2019-04-07T18:12:12.791Z,15.16
2019-04-07T18:14:43.737Z,15.19
2019-04-07T18:17:33.466Z,15.13
2019-04-07T18:20:08.908Z,15.04
2019-04-07T18:22:42.257Z,15.07
2019-04-07T18:25:14.727Z,15.01
2019-04-07T18:27:48.319Z,14.96
2019-04-07T18:30:23.298Z,14.94
2019-04-07T18:33:05.415Z,14.90
2019-04-07T18:35:37.984Z,14.86
2019-04-07T18:38:27.501Z,14.80
2019-04-07T18:41:09.397Z,14.73
2019-04-07T18:43:50.667Z,14.72
2019-04-07T18:46:27.971Z,14.70
2019-04-07T18:49:04.868Z,14.61
2019-04-07T18:51:53.735Z,14.58
2019-04-07T18:54:38.892Z,14.50
2019-04-07T18:57:20.564Z,14.41
2019-04-07T19:00:08.570Z,14.38
2019-04-07T19:03:00.113Z,14.32
2019-04-07T19:05:45.807Z,14.32
2019-04-07T19:08:25.134Z,14.30
2019-04-07T19:11:10.816Z,14.25
2019-04-07T19:13:37.961Z,14.22
2019-04-07T19:16:19.381Z,14.16
2019-04-07T19:19:08.189Z,14.12
2019-04-07T19:21:55.416Z,14.09
2019-04-07T19:24:37.853Z,14.05
2019-04-07T19:27:30.128Z,13.94
2019-04-07T19:30:07.450Z,13.88
2019-04-07T19:32:40.048Z,13.82
2019-04-07T19:35:21.769Z,13.75
2019-04-07T19:37:54.391Z,13.77
2019-04-07T19:40:48.354Z,13.69
2019-04-07T19:43:39.904Z,13.69
2019-04-07T19:46:12.716Z,13.65
2019-04-07T19:48:52.177Z,13.58
2019-04-07T19:51:41.626Z,13.64
2019-04-07T19:54:18.025Z,13.65
2019-04-07T19:56:50.268Z,13.66
2019-04-07T19:59:31.899Z,13.55
2019-04-07T20:02:10.455Z,13.46
2019-04-07T20:04:45.831Z,13.45
2019-04-07T20:07:34.104Z,13.39
2019-04-07T20:10:23.718Z,13.40
2019-04-07T20:12:58.573Z,13.34
2019-04-07T20:15:43.145Z,13.30
2019-04-07T20:18:19.061Z,13.17
2019-04-07T20:21:13.218Z,13.15
2019-04-07T20:23:45.358Z,13.14
2019-04-07T20:26:20.747Z,13.11
2019-04-07T20:29:06.608Z,13.08
2019-04-07T20:31:53.732Z,13.11
2019-04-07T20:34:26.788Z,13.06
2019-04-07T20:36:59.790Z,12.95
2019-04-07T20:39:36.569Z,12.93
2019-04-07T20:42:25.751Z,12.88
2019-04-07T20:45:04.232Z,12.77
2019-04-07T20:47:38.647Z,12.86
2019-04-07T20:50:28.100Z,12.79
2019-04-07T20:53:12.632Z,12.75
2019-04-07T20:55:49.575Z,12.77
2019-04-07T20:58:24.406Z,12.75
2019-04-07T21:01:10.041Z,12.76
2019-04-07T21:03:48.363Z,12.78
2019-04-07T21:06:34.260Z,12.68
2019-04-07T21:09:12.190Z,12.63
2019-04-07T21:12:02.983Z,12.56
2019-04-07T21:14:38.976Z,12.50
2019-04-07T21:17:29.672Z,12.45
2019-04-07T21:20:14.540Z,12.43
2019-04-07T21:23:04.667Z,12.35
2019-04-07T21:25:37.132Z,12.09
2019-04-07T21:28:18.685Z,12.13
2019-04-07T21:30:54.263Z,12.10
2019-04-07T21:33:44.846Z,12.02
2019-04-07T21:36:17.585Z,12.07
2019-04-07T21:38:55.167Z,12.02
2019-04-07T21:41:44.202Z,12.06
2019-04-07T21:44:17.483Z,12.02
2019-04-07T21:47:02.222Z,11.98
2019-04-07T21:49:41.799Z,11.97
2019-04-07T21:52:22.469Z,11.94
2019-04-07T21:54:58.210Z,11.95
2019-04-07T21:57:30.472Z,11.95
2019-04-07T22:00:21.182Z,11.91
2019-04-07T22:02:54.973Z,11.86
2019-04-07T22:05:34.977Z,11.74
2019-04-07T22:08:15.538Z,11.81
2019-04-07T22:10:44.766Z,11.71
2019-04-07T22:13:15.872Z,11.69
2019-04-07T22:15:51.893Z,11.61
2019-04-07T22:18:21.557Z,11.60
2019-04-07T22:20:54.822Z,11.48
2019-04-07T22:23:25.423Z,11.45
2019-04-07T22:25:57.082Z,11.48
2019-04-07T22:28:29.347Z,11.34
2019-04-07T22:31:01.507Z,11.31
2019-04-07T22:33:33.730Z,11.27
2019-04-07T22:36:05.856Z,11.20
2019-04-07T22:38:37.673Z,11.15
2019-04-07T22:41:10.071Z,11.11
2019-04-07T22:43:41.825Z,11.11
2019-04-07T22:46:19.507Z,11.07
2019-04-07T22:48:45.919Z,11.04
2019-04-07T22:51:17.020Z,11.04
2019-04-07T22:53:47.926Z,11.00
2019-04-07T22:56:18.766Z,10.95
2019-04-07T22:58:49.707Z,10.97
2019-04-07T23:01:23.043Z,10.89
2019-04-07T23:03:53.819Z,10.87
2019-04-07T23:06:25.381Z,10.82
2019-04-07T23:08:57.171Z,10.80
2019-04-07T23:11:29.996Z,10.76
2019-04-07T23:14:01.025Z,10.69
2019-04-07T23:16:32.506Z,10.68
2019-04-07T23:19:03.444Z,10.70
2019-04-07T23:21:34.377Z,10.71
2019-04-07T23:24:05.624Z,10.66
2019-04-07T23:26:38.226Z,10.68
2019-04-07T23:29:10.040Z,10.72
2019-04-07T23:31:40.962Z,10.72
2019-04-07T23:34:12.035Z,10.74
2019-04-07T23:36:43.620Z,10.68
2019-04-07T23:39:15.265Z,10.67
2019-04-07T23:41:46.584Z,10.61
2019-04-07T23:44:17.441Z,10.58
2019-04-07T23:46:48.955Z,10.57
2019-04-07T23:49:20.479Z,10.45
2019-04-07T23:51:51.666Z,10.38
2019-04-07T23:54:22.910Z,10.40
2019-04-07T23:56:54.153Z,10.34
2019-04-07T23:59:25.190Z,10.34
